Time;durP1;ratioP1;P1;durP2;ratioP2;P2;SDS_P1;SDS_P2;PMS_P1;PMS_P2;Temp;Humidity;BMP_temperature;BMP_pressure;BME280_temperature;BME280_humidity;BME280_pressure;Samples;Min_cycle;Max_cycle;Signal;HPM_P1;HPM_P2
2023/12/06 00:01:26;;;;;;;13.90;5.13;;;;;;;;;;4979310;28;20056;-67
2023/12/06 00:03:52;;;;;;;13.20;4.97;;;;;;;;;;4975200;28;20010;-67
2023/12/06 00:06:19;;;;;;;;;;;;;;;;;;4980391;28;20033;-67
2023/12/06 00:08:45;;;;;;;14.07;4.95;;;;;;;;;;4978028;28;19913;-66
2023/12/06 00:11:12;;;;;;;11.15;4.03;;;;;;;;;;4974033;28;20664;-66
2023/12/06 00:13:39;;;;;;;12.85;4.82;;;;;;;;;;4977796;28;20109;-67
2023/12/06 00:16:05;;;;;;;13.27;4.60;;;;;;;;;;4977016;28;20771;-66
2023/12/06 00:18:34;;;;;;;11.70;4.65;;;;;;;;;;4981656;28;20030;-66
2023/12/06 00:21:00;;;;;;;13.68;4.80;;;;;;;;;;4981022;28;20101;-66
2023/12/06 00:23:26;;;;;;;11.10;3.83;;;;;;;;;;4982364;28;20127;-67
2023/12/06 00:25:52;;;;;;;12.20;4.55;;;;;;;;;;4979071;28;20888;-66
2023/12/06 00:28:18;;;;;;;12.73;4.22;;;;;;;;;;4983962;28;20033;-66
2023/12/06 00:30:44;;;;;;;12.95;4.72;;;;;;;;;;4982514;28;20038;-66
2023/12/06 00:33:10;;;;;;;11.18;4.53;;;;;;;;;;4977938;28;21526;-66
2023/12/06 00:35:37;;;;;;;13.00;4.97;;;;;;;;;;4983251;28;20045;-67
2023/12/06 00:38:03;;;;;;;11.93;4.85;;;;;;;;;;4977214;28;20026;-66
2023/12/06 00:40:29;;;;;;;;;;;;;;;;;;4983043;28;20038;-66
2023/12/06 00:42:55;;;;;;;13.95;5.63;;;;;;;;;;4978254;28;20557;-66
2023/12/06 00:45:21;;;;;;;14.10;5.22;;;;;;;;;;4975858;28;20018;-66
2023/12/06 00:47:48;;;;;;;13.20;5.90;;;;;;;;;;4983946;28;20034;-66
2023/12/06 00:50:14;;;;;;;11.73;5.30;;;;;;;;;;4965364;28;20034;-66
2023/12/06 00:52:40;;;;;;;12.77;4.95;;;;;;;;;;4973632;28;20135;-66
2023/12/06 00:55:08;;;;;;;14.10;5.43;;;;;;;;;;4982806;28;20662;-66
2023/12/06 00:57:34;;;;;;;12.40;5.75;;;;;;;;;;4987221;28;20025;-66
2023/12/06 01:00:00;;;;;;;10.00;4.47;;;;;;;;;;4986778;28;20062;-66
2023/12/06 01:02:27;;;;;;;11.23;4.38;;;;;;;;;;4987409;28;20049;-66
2023/12/06 01:04:53;;;;;;;;;;;;;;;;;;4981401;28;20029;-66
2023/12/06 01:07:22;;;;;;;11.57;5.10;;;;;;;;;;4991000;28;19913;-66
2023/12/06 01:09:48;;;;;;;12.07;3.83;;;;;;;;;;4990381;28;20121;-67
2023/12/06 01:12:14;;;;;;;11.77;4.68;;;;;;;;;;4982496;28;20057;-66
2023/12/06 01:14:40;;;;;;;;;;;;;;;;;;4989906;28;20906;-65
2023/12/06 01:17:06;;;;;;;10.93;3.78;;;;;;;;;;4984638;28;19923;-67
2023/12/06 01:19:32;;;;;;;10.35;3.08;;;;;;;;;;4982933;28;20109;-67
2023/12/06 01:21:58;;;;;;;10.68;3.42;;;;;;;;;;4983460;28;20034;-65
2023/12/06 01:24:24;;;;;;;;;;;;;;;;;;4984365;28;20028;-65
2023/12/06 01:26:52;;;;;;;7.68;2.20;;;;;;;;;;4972707;28;19913;-66
2023/12/06 01:29:18;;;;;;;10.23;3.05;;;;;;;;;;4949007;28;20141;-65
2023/12/06 01:31:45;;;;;;;9.13;2.90;;;;;;;;;;4956448;28;20133;-65
2023/12/06 01:34:11;;;;;;;9.30;2.55;;;;;;;;;;4954825;28;22579;-65
2023/12/06 01:36:39;;;;;;;8.85;2.60;;;;;;;;;;4959256;28;20030;-66
2023/12/06 01:39:05;;;;;;;9.43;2.50;;;;;;;;;;4953637;28;20038;-66
2023/12/06 01:41:32;;;;;;;9.13;2.80;;;;;;;;;;4955352;28;20105;-67
2023/12/06 01:43:58;;;;;;;9.05;3.10;;;;;;;;;;4955764;28;20034;-67
2023/12/06 01:46:24;;;;;;;10.52;3.75;;;;;;;;;;4955421;28;20117;-66
2023/12/06 01:48:51;;;;;;;10.60;5.18;;;;;;;;;;4956639;28;20632;-67
2023/12/06 01:51:19;;;;;;;11.52;4.60;;;;;;;;;;4958761;28;20045;-64
2023/12/06 01:53:46;;;;;;;11.50;4.15;;;;;;;;;;4957615;28;20092;-66
2023/12/06 01:56:14;;;;;;;10.02;4.28;;;;;;;;;;4953520;28;20053;-66
2023/12/06 01:58:40;;;;;;;9.00;3.28;;;;;;;;;;4955077;28;20044;-66
2023/12/06 02:01:07;;;;;;;7.80;2.90;;;;;;;;;;4957962;28;20029;-66
2023/12/06 02:03:35;;;;;;;11.85;3.97;;;;;;;;;;4970187;28;20066;-66
2023/12/06 02:06:02;;;;;;;12.80;5.30;;;;;;;;;;4968043;28;20061;-66
2023/12/06 02:08:29;;;;;;;13.45;6.47;;;;;;;;;;4987160;28;20034;-65
2023/12/06 02:10:55;;;;;;;13.48;6.60;;;;;;;;;;4984751;28;20034;-66
2023/12/06 02:13:21;;;;;;;16.65;7.97;;;;;;;;;;4983717;28;20658;-66
2023/12/06 02:15:48;;;;;;;16.00;7.70;;;;;;;;;;4984905;28;20155;-66
2023/12/06 02:18:15;;;;;;;13.35;6.25;;;;;;;;;;4983791;28;20052;-66
2023/12/06 02:20:42;;;;;;;;;;;;;;;;;;4986120;28;20148;-65
2023/12/06 02:23:08;;;;;;;12.00;5.07;;;;;;;;;;4983900;28;19914;-66
2023/12/06 02:25:35;;;;;;;11.10;4.13;;;;;;;;;;4981869;28;20030;-66
2023/12/06 02:28:01;;;;;;;10.35;4.35;;;;;;;;;;4978359;28;20030;-66
2023/12/06 02:30:27;;;;;;;13.05;5.05;;;;;;;;;;4987031;28;20144;-66
2023/12/06 02:32:53;;;;;;;8.65;3.58;;;;;;;;;;4978310;28;20026;-66
2023/12/06 02:35:22;;;;;;;11.50;4.30;;;;;;;;;;4987636;28;20034;-66
2023/12/06 02:37:50;;;;;;;10.35;4.25;;;;;;;;;;4988214;28;20029;-66
2023/12/06 02:40:16;;;;;;;9.10;3.90;;;;;;;;;;4978988;28;20038;-67
2023/12/06 02:42:43;;;;;;;10.57;3.67;;;;;;;;;;4959220;28;20828;-66
2023/12/06 02:45:09;;;;;;;;;;;;;;;;;;4961157;28;20025;-64
2023/12/06 02:47:35;;;;;;;9.35;3.35;;;;;;;;;;4960654;28;20387;-65
2023/12/06 02:50:02;;;;;;;7.32;3.03;;;;;;;;;;4958004;28;20087;-64
2023/12/06 02:52:28;;;;;;;8.20;2.97;;;;;;;;;;4957714;28;20045;-65
2023/12/06 02:54:54;;;;;;;9.02;3.40;;;;;;;;;;4954257;28;20046;-66
2023/12/06 02:57:20;;;;;;;7.88;2.80;;;;;;;;;;4957072;28;20627;-66
2023/12/06 02:59:47;;;;;;;8.32;2.47;;;;;;;;;;4955769;28;20032;-64
2023/12/06 03:02:13;;;;;;;9.02;2.63;;;;;;;;;;4956391;28;20033;-67
2023/12/06 03:04:39;;;;;;;7.43;2.47;;;;;;;;;;4956218;28;20292;-67
2023/12/06 03:07:06;;;;;;;8.73;2.80;;;;;;;;;;4953544;28;20107;-66
2023/12/06 03:09:32;;;;;;;8.60;2.60;;;;;;;;;;4956657;28;20034;-64
2023/12/06 03:11:58;;;;;;;7.45;2.67;;;;;;;;;;4954548;28;20180;-65
2023/12/06 03:14:24;;;;;;;8.90;2.90;;;;;;;;;;4955741;28;20455;-65
2023/12/06 03:16:51;;;;;;;9.13;2.60;;;;;;;;;;4957609;28;20038;-65
2023/12/06 03:19:18;;;;;;;7.70;2.70;;;;;;;;;;4984702;28;20053;-65
2023/12/06 03:21:44;;;;;;;8.23;2.30;;;;;;;;;;4983323;28;20044;-65
2023/12/06 03:24:10;;;;;;;6.53;1.88;;;;;;;;;;4980341;28;20034;-65
2023/12/06 03:26:36;;;;;;;7.22;2.20;;;;;;;;;;4983221;28;20034;-65
2023/12/06 03:29:02;;;;;;;8.63;2.92;;;;;;;;;;4980939;28;20034;-65
2023/12/06 03:31:29;;;;;;;7.57;2.75;;;;;;;;;;4984932;28;20033;-65
2023/12/06 03:33:55;;;;;;;8.43;3.00;;;;;;;;;;4983432;28;20033;-65
2023/12/06 03:36:21;;;;;;;9.05;3.03;;;;;;;;;;4983182;28;20473;-66
2023/12/06 03:38:48;;;;;;;10.18;2.90;;;;;;;;;;4985665;28;20022;-66
2023/12/06 03:41:14;;;;;;;7.93;2.25;;;;;;;;;;4980723;28;20035;-66
2023/12/06 03:43:40;;;;;;;7.10;2.35;;;;;;;;;;4981564;28;20098;-66
2023/12/06 03:46:08;;;;;;;8.57;2.45;;;;;;;;;;4982080;28;20136;-66
2023/12/06 03:48:35;;;;;;;7.25;2.03;;;;;;;;;;4988078;28;20084;-66
2023/12/06 03:51:01;;;;;;;11.27;2.10;;;;;;;;;;4980445;28;20042;-69
2023/12/06 03:53:28;;;;;;;6.90;2.00;;;;;;;;;;4987104;28;20030;-64
2023/12/06 03:55:54;;;;;;;7.10;1.90;;;;;;;;;;4987039;28;20058;-65
2023/12/06 03:58:22;;;;;;;6.88;2.00;;;;;;;;;;4989787;28;20603;-67
2023/12/06 04:00:48;;;;;;;7.88;2.10;;;;;;;;;;4986749;28;20065;-65
2023/12/06 04:03:14;;;;;;;7.25;1.85;;;;;;;;;;4983979;28;20401;-64
2023/12/06 04:05:45;;;;;;;8.15;2.20;;;;;;;;;;4991989;28;20030;-67
2023/12/06 04:08:11;;;;;;;6.53;1.98;;;;;;;;;;4986691;28;23581;-67
2023/12/06 04:10:37;;;;;;;;;;;;;;;;;;4987367;28;20037;-65
2023/12/06 04:13:04;;;;;;;9.05;2.90;;;;;;;;;;4987514;28;20383;-67
2023/12/06 04:15:31;;;;;;;8.30;2.80;;;;;;;;;;4989998;28;20040;-66
2023/12/06 04:17:58;;;;;;;8.60;2.83;;;;;;;;;;4985936;28;20045;-66
2023/12/06 04:20:24;;;;;;;7.60;2.17;;;;;;;;;;4987107;28;20034;-65
2023/12/06 04:22:51;;;;;;;8.98;2.33;;;;;;;;;;4985048;28;20072;-65
2023/12/06 04:25:18;;;;;;;8.05;2.22;;;;;;;;;;4987580;28;20081;-65
2023/12/06 04:27:44;;;;;;;8.20;1.90;;;;;;;;;;4988387;28;20068;-65
2023/12/06 04:30:11;;;;;;;8.60;2.00;;;;;;;;;;4986791;28;20125;-67
2023/12/06 04:32:37;;;;;;;6.25;1.75;;;;;;;;;;4991022;28;20629;-65
2023/12/06 04:35:05;;;;;;;7.90;1.98;;;;;;;;;;4988254;28;20064;-65
2023/12/06 04:37:31;;;;;;;6.28;1.90;;;;;;;;;;4990650;28;20042;-67
2023/12/06 04:39:57;;;;;;;7.93;2.08;;;;;;;;;;4986817;28;20034;-65
2023/12/06 04:42:23;;;;;;;9.27;2.00;;;;;;;;;;4985653;28;20033;-65
2023/12/06 04:44:51;;;;;;;7.00;1.98;;;;;;;;;;4989844;28;20026;-65
2023/12/06 04:47:17;;;;;;;7.28;1.77;;;;;;;;;;4984576;28;20061;-65
2023/12/06 04:49:43;;;;;;;4.97;1.60;;;;;;;;;;4989240;28;20040;-65
2023/12/06 04:52:09;;;;;;;8.35;1.80;;;;;;;;;;4983146;28;20504;-65
2023/12/06 04:54:35;;;;;;;5.78;1.35;;;;;;;;;;4989667;28;20064;-65
2023/12/06 04:57:03;;;;;;;11.02;1.70;;;;;;;;;;4987822;28;20105;-68
2023/12/06 04:59:29;;;;;;;9.25;2.05;;;;;;;;;;4989052;28;20129;-66
2023/12/06 05:01:55;;;;;;;6.55;1.65;;;;;;;;;;4984631;28;20054;-65
2023/12/06 05:04:24;;;;;;;5.63;1.65;;;;;;;;;;4984572;28;20076;-65
2023/12/06 05:06:50;;;;;;;7.55;2.03;;;;;;;;;;4981420;28;20023;-65
2023/12/06 05:09:17;;;;;;;6.28;1.75;;;;;;;;;;4983403;28;20038;-68
2023/12/06 05:11:43;;;;;;;6.47;1.70;;;;;;;;;;4991167;28;20029;-65
2023/12/06 05:14:09;;;;;;;6.72;1.92;;;;;;;;;;4983055;28;20033;-65
2023/12/06 05:16:35;;;;;;;8.32;2.47;;;;;;;;;;4984838;28;20515;-66
2023/12/06 05:19:01;;;;;;;7.75;1.88;;;;;;;;;;4981791;28;21038;-66
2023/12/06 05:21:32;;;;;;;8.13;2.10;;;;;;;;;;4986181;28;20032;-66
2023/12/06 05:23:58;;;;;;;6.82;2.20;;;;;;;;;;4983069;28;20030;-65
2023/12/06 05:26:26;;;;;;;6.80;1.80;;;;;;;;;;4987422;28;20029;-66
2023/12/06 05:28:52;;;;;;;8.13;2.13;;;;;;;;;;4987050;28;20049;-65
2023/12/06 05:31:18;;;;;;;8.45;2.22;;;;;;;;;;4991312;28;20034;-66
2023/12/06 05:33:45;;;;;;;8.73;2.75;;;;;;;;;;4986554;28;20056;-67
2023/12/06 05:36:11;;;;;;;7.90;2.20;;;;;;;;;;4983091;28;20156;-66
2023/12/06 05:38:37;;;;;;;7.47;2.00;;;;;;;;;;4986206;28;20034;-66
2023/12/06 05:41:03;;;;;;;7.32;2.10;;;;;;;;;;4984371;28;20823;-65
2023/12/06 05:43:29;;;;;;;9.38;2.00;;;;;;;;;;4984853;28;20030;-65
2023/12/06 05:45:55;;;;;;;9.07;2.33;;;;;;;;;;4985562;28;20026;-65
2023/12/06 05:48:22;;;;;;;8.75;2.70;;;;;;;;;;4988971;28;20695;-66
2023/12/06 05:50:48;;;;;;;;;;;;;;;;;;4985502;28;21033;-67
2023/12/06 05:53:14;;;;;;;9.15;2.30;;;;;;;;;;4999057;28;19913;-66
2023/12/06 05:55:40;;;;;;;8.07;2.20;;;;;;;;;;4983841;28;20045;-66
2023/12/06 05:58:06;;;;;;;8.55;2.20;;;;;;;;;;4986700;28;20097;-65
2023/12/06 06:00:32;;;;;;;7.30;2.10;;;;;;;;;;4984354;28;20491;-65
2023/12/06 06:02:59;;;;;;;9.88;1.90;;;;;;;;;;4980695;28;20065;-65
2023/12/06 06:05:26;;;;;;;8.90;2.47;;;;;;;;;;4982359;28;20026;-65
2023/12/06 06:07:54;;;;;;;8.13;2.35;;;;;;;;;;4984335;28;20029;-65
2023/12/06 06:10:20;;;;;;;9.60;2.72;;;;;;;;;;4985775;28;20033;-65
2023/12/06 06:12:47;;;;;;;9.45;2.90;;;;;;;;;;4985346;28;20034;-66
2023/12/06 06:15:14;;;;;;;11.18;2.90;;;;;;;;;;4979866;28;20962;-69
2023/12/06 06:17:40;;;;;;;11.52;3.33;;;;;;;;;;4985513;28;20033;-66
2023/12/06 06:20:06;;;;;;;12.45;3.40;;;;;;;;;;4980848;28;20269;-66
2023/12/06 06:22:34;;;;;;;;;;;;;;;;;;4989094;28;20115;-66
2023/12/06 06:25:00;;;;;;;8.43;2.72;;;;;;;;;;4981749;28;20622;-65
2023/12/06 06:27:26;;;;;;;8.85;2.50;;;;;;;;;;4987411;28;20149;-65
2023/12/06 06:29:52;;;;;;;10.18;2.85;;;;;;;;;;4980910;28;20030;-66
2023/12/06 06:32:18;;;;;;;7.75;2.33;;;;;;;;;;4985950;28;20093;-66
2023/12/06 06:34:45;;;;;;;10.43;2.83;;;;;;;;;;4983150;28;20053;-65
2023/12/06 06:37:11;;;;;;;10.07;2.80;;;;;;;;;;4983360;28;20072;-65
2023/12/06 06:39:38;;;;;;;7.90;2.17;;;;;;;;;;4985553;28;20026;-65
2023/12/06 06:42:06;;;;;;;7.57;2.30;;;;;;;;;;4982598;28;20026;-66
2023/12/06 06:44:32;;;;;;;8.88;2.58;;;;;;;;;;4984334;28;20080;-65
2023/12/06 06:46:59;;;;;;;9.27;2.25;;;;;;;;;;4983909;28;20037;-65
2023/12/06 06:49:26;;;;;;;7.63;2.50;;;;;;;;;;4986499;28;20972;-65
2023/12/06 06:51:52;;;;;;;8.52;2.83;;;;;;;;;;4982671;28;20030;-66
2023/12/06 06:54:18;;;;;;;10.30;3.30;;;;;;;;;;4984271;28;20095;-65
2023/12/06 06:56:45;;;;;;;9.63;3.17;;;;;;;;;;4983815;28;20034;-66
2023/12/06 06:59:12;;;;;;;8.35;3.00;;;;;;;;;;4985929;28;20061;-64
2023/12/06 07:01:38;;;;;;;8.25;3.25;;;;;;;;;;4982453;28;20045;-66
2023/12/06 07:04:04;;;;;;;9.60;3.90;;;;;;;;;;4984236;28;20037;-65
2023/12/06 07:06:30;;;;;;;11.93;4.15;;;;;;;;;;4985046;28;20851;-66
2023/12/06 07:08:56;;;;;;;12.45;3.90;;;;;;;;;;4981054;28;20416;-65
2023/12/06 07:11:22;;;;;;;10.43;4.25;;;;;;;;;;4984760;28;20060;-66
2023/12/06 07:13:49;;;;;;;9.93;3.72;;;;;;;;;;4985098;28;20034;-66
2023/12/06 07:16:15;;;;;;;;;;;;;;;;;;4981573;28;20080;-65
2023/12/06 07:18:41;;;;;;;10.80;4.20;;;;;;;;;;4985505;28;19913;-65
2023/12/06 07:21:08;;;;;;;11.88;4.30;;;;;;;;;;4979228;28;20038;-65
2023/12/06 07:23:34;;;;;;;13.82;6.97;;;;;;;;;;4983807;28;20064;-66
2023/12/06 07:26:01;;;;;;;13.48;6.60;;;;;;;;;;4978273;28;20415;-68
2023/12/06 07:28:27;;;;;;;14.10;6.95;;;;;;;;;;4988639;28;20022;-66
2023/12/06 07:30:53;;;;;;;13.48;5.55;;;;;;;;;;4985477;28;20034;-66
2023/12/06 07:33:19;;;;;;;13.20;5.90;;;;;;;;;;4990774;28;20680;-66
2023/12/06 07:35:45;;;;;;;13.10;6.13;;;;;;;;;;4987582;28;20444;-67
2023/12/06 07:38:13;;;;;;;10.23;4.35;;;;;;;;;;4987273;28;20037;-66
2023/12/06 07:40:39;;;;;;;11.45;4.38;;;;;;;;;;4987986;28;20026;-66
2023/12/06 07:43:05;;;;;;;10.02;3.72;;;;;;;;;;4986614;28;20038;-66
2023/12/06 07:45:31;;;;;;;10.95;3.38;;;;;;;;;;4989982;28;20029;-66
2023/12/06 07:47:57;;;;;;;;;;;;;;;;;;4987605;28;20037;-66
2023/12/06 07:50:23;;;;;;;9.63;3.30;;;;;;;;;;4990588;28;19920;-65
2023/12/06 07:52:51;;;;;;;8.68;2.97;;;;;;;;;;4989601;28;20100;-68
2023/12/06 07:55:17;;;;;;;8.43;2.83;;;;;;;;;;4987310;28;20056;-66
2023/12/06 07:57:43;;;;;;;8.50;3.10;;;;;;;;;;4986304;28;20044;-66
2023/12/06 08:00:13;;;;;;;11.32;4.13;;;;;;;;;;4987627;28;20030;-67
2023/12/06 08:02:41;;;;;;;11.23;4.07;;;;;;;;;;4985455;28;20034;-67
2023/12/06 08:05:09;;;;;;;11.60;4.55;;;;;;;;;;4983875;28;20028;-66
2023/12/06 08:07:36;;;;;;;12.93;4.35;;;;;;;;;;4984792;28;20034;-67
2023/12/06 08:10:08;;;;;;;13.82;4.30;;;;;;;;;;4987685;28;20485;-65
2023/12/06 08:12:36;;;;;;;14.27;5.00;;;;;;;;;;4988477;28;20112;-65
2023/12/06 08:15:05;;;;;;;13.02;5.25;;;;;;;;;;4986363;28;20034;-68
2023/12/06 08:17:32;;;;;;;11.55;4.88;;;;;;;;;;4988786;28;20081;-67
2023/12/06 08:19:59;;;;;;;;;;;;;;;;;;4987670;28;20040;-67
2023/12/06 08:22:26;;;;;;;12.73;5.03;;;;;;;;;;4989300;28;20028;-67
2023/12/06 08:24:56;;;;;;;18.67;5.63;;;;;;;;;;4980276;28;20029;-67
2023/12/06 08:27:24;;;;;;;12.43;5.05;;;;;;;;;;4986978;28;20128;-67
2023/12/06 08:29:51;;;;;;;13.50;5.22;;;;;;;;;;4984021;28;20037;-66
2023/12/06 08:32:17;;;;;;;11.55;5.15;;;;;;;;;;4990882;28;20546;-65
2023/12/06 08:34:43;;;;;;;10.10;4.13;;;;;;;;;;4985241;28;20038;-65
2023/12/06 08:37:10;;;;;;;10.32;3.95;;;;;;;;;;4986313;28;20495;-66
2023/12/06 08:39:36;;;;;;;9.38;4.68;;;;;;;;;;4985658;28;20116;-68
2023/12/06 08:42:02;;;;;;;12.13;6.22;;;;;;;;;;4985657;28;20626;-66
2023/12/06 08:44:28;;;;;;;11.73;5.35;;;;;;;;;;4986377;28;20560;-65
2023/12/06 08:46:54;;;;;;;;;;;;;;;;;;4988407;28;20026;-65
2023/12/06 08:49:21;;;;;;;13.13;5.40;;;;;;;;;;4987269;28;19913;-68
2023/12/06 08:51:48;;;;;;;13.05;5.97;;;;;;;;;;4985286;28;20582;-67
2023/12/06 08:54:14;;;;;;;13.75;5.70;;;;;;;;;;4982874;28;20084;-67
2023/12/06 08:56:40;;;;;;;;;;;;;;;;;;4987687;28;20030;-66
2023/12/06 08:59:06;;;;;;;16.42;8.57;;;;;;;;;;4988700;28;19941;-66
2023/12/06 09:01:32;;;;;;;18.85;9.10;;;;;;;;;;4982444;28;20068;-66
2023/12/06 09:03:59;;;;;;;14.70;7.65;;;;;;;;;;4983453;28;20022;-66
2023/12/06 09:06:27;;;;;;;20.65;8.85;;;;;;;;;;4987623;28;20622;-66
2023/12/06 09:08:53;;;;;;;20.63;9.10;;;;;;;;;;4985640;28;20020;-66
2023/12/06 09:11:21;;;;;;;20.88;10.00;;;;;;;;;;4987489;28;20030;-66
2023/12/06 09:13:47;;;;;;;17.48;8.75;;;;;;;;;;4985601;28;20045;-65
2023/12/06 09:16:14;;;;;;;18.85;9.25;;;;;;;;;;4980606;28;20667;-67
2023/12/06 09:18:40;;;;;;;16.83;8.32;;;;;;;;;;4987979;28;20136;-66
2023/12/06 09:21:06;;;;;;;;;;;;;;;;;;4985334;28;20034;-66
2023/12/06 09:23:34;;;;;;;18.73;10.20;;;;;;;;;;4985807;28;19917;-67
2023/12/06 09:26:01;;;;;;;17.38;10.02;;;;;;;;;;4973578;28;20034;-66
2023/12/06 09:28:28;;;;;;;15.57;9.00;;;;;;;;;;4983581;28;20034;-66
2023/12/06 09:30:54;;;;;;;29.70;24.35;;;;;;;;;;4985071;28;20057;-67
2023/12/06 09:33:21;;;;;;;38.97;29.50;;;;;;;;;;4974813;28;20120;-65
2023/12/06 09:35:47;;;;;;;22.58;15.85;;;;;;;;;;4983840;28;20025;-64
2023/12/06 09:38:13;;;;;;;;;;;;;;;;;;4985192;28;20113;-66
2023/12/06 09:40:39;;;;;;;14.93;8.20;;;;;;;;;;5001458;28;20459;-65
2023/12/06 09:43:05;;;;;;;;;;;;;;;;;;4981326;28;20029;-67
2023/12/06 09:45:32;;;;;;;14.77;7.85;;;;;;;;;;4984960;28;19913;-67
2023/12/06 09:48:00;;;;;;;15.95;8.18;;;;;;;;;;4982593;28;20038;-67
2023/12/06 09:50:27;;;;;;;17.73;8.25;;;;;;;;;;4983960;28;20064;-67
2023/12/06 09:52:54;;;;;;;15.73;7.50;;;;;;;;;;4983422;28;20034;-68
2023/12/06 09:55:23;;;;;;;16.52;6.90;;;;;;;;;;4986322;28;20342;-67
2023/12/06 09:57:51;;;;;;;12.63;6.13;;;;;;;;;;4986449;28;20136;-67
2023/12/06 10:00:17;;;;;;;13.20;6.50;;;;;;;;;;4988850;28;20021;-67
2023/12/06 10:02:54;;;;;;;13.18;5.95;;;;;;;;;;4987539;28;20200;-65
2023/12/06 10:05:20;;;;;;;;;;;;;;;;;;4985523;28;20068;-66
2023/12/06 10:07:46;;;;;;;13.55;6.13;;;;;;;;;;4985144;28;19948;-67
2023/12/06 10:10:19;;;;;;;14.68;6.38;;;;;;;;;;4986567;28;20125;-67
2023/12/06 10:12:48;;;;;;;16.90;6.65;;;;;;;;;;4986646;28;20029;-67
2023/12/06 10:15:15;;;;;;;23.45;14.70;;;;;;;;;;4984144;28;20087;-67
2023/12/06 10:17:42;;;;;;;24.90;13.50;;;;;;;;;;4984073;28;20034;-66
2023/12/06 10:20:08;;;;;;;24.80;9.50;;;;;;;;;;4983352;28;20041;-66
2023/12/06 10:22:36;;;;;;;20.17;9.68;;;;;;;;;;4985458;28;20022;-65
2023/12/06 10:25:06;;;;;;;18.85;10.20;;;;;;;;;;4984845;28;20034;-66
2023/12/06 10:27:32;;;;;;;26.13;13.30;;;;;;;;;;4987127;28;20041;-66
2023/12/06 10:30:01;;;;;;;20.00;8.93;;;;;;;;;;4982427;28;20089;-66
2023/12/06 10:32:29;;;;;;;17.52;9.15;;;;;;;;;;4985424;28;20037;-66
2023/12/06 10:34:57;;;;;;;15.93;9.10;;;;;;;;;;4982606;28;20523;-66
2023/12/06 10:37:23;;;;;;;20.98;11.88;;;;;;;;;;4984140;28;20065;-66
2023/12/06 10:39:51;;;;;;;23.10;10.30;;;;;;;;;;4987855;28;20066;-66
2023/12/06 10:42:20;;;;;;;17.42;8.40;;;;;;;;;;4988182;28;20026;-67
2023/12/06 10:44:49;;;;;;;14.55;8.23;;;;;;;;;;4987527;28;20045;-67
2023/12/06 10:47:16;;;;;;;14.75;6.72;;;;;;;;;;4982531;28;20030;-67
2023/12/06 10:49:43;;;;;;;11.52;6.05;;;;;;;;;;4985518;28;20057;-67
2023/12/06 10:52:09;;;;;;;13.45;6.18;;;;;;;;;;4985862;28;20649;-67
2023/12/06 10:54:35;;;;;;;13.63;6.88;;;;;;;;;;4986022;28;20062;-67
2023/12/06 10:57:03;;;;;;;12.68;5.55;;;;;;;;;;4983370;28;20136;-67
2023/12/06 10:59:33;;;;;;;14.75;9.25;;;;;;;;;;4987438;28;20026;-67
2023/12/06 11:02:00;;;;;;;30.45;27.10;;;;;;;;;;4981856;28;20022;-65
2023/12/06 11:04:30;;;;;;;143.10;128.32;;;;;;;;;;4988976;28;20030;-67
2023/12/06 11:07:09;;;;;;;30.33;24.30;;;;;;;;;;4982392;28;20026;-67
2023/12/06 11:09:51;;;;;;;42.38;37.90;;;;;;;;;;4984780;28;20511;-67
2023/12/06 11:12:26;;;;;;;16.63;8.00;;;;;;;;;;4984560;28;20035;-67
2023/12/06 11:15:06;;;;;;;9.00;3.83;;;;;;;;;;4980505;28;20034;-68
2023/12/06 11:17:42;;;;;;;33.38;24.55;;;;;;;;;;4988438;28;20065;-65
2023/12/06 11:20:09;;;;;;;15.20;10.40;;;;;;;;;;4983654;28;20033;-66
2023/12/06 11:22:36;;;;;;;8.57;3.65;;;;;;;;;;4986092;28;20123;-67
2023/12/06 11:25:03;;;;;;;9.18;4.47;;;;;;;;;;4980069;28;20030;-67
2023/12/06 11:27:29;;;;;;;7.65;2.67;;;;;;;;;;4984346;28;20125;-67
2023/12/06 11:29:56;;;;;;;8.23;3.30;;;;;;;;;;4985617;28;20136;-68
2023/12/06 11:32:23;;;;;;;12.02;4.47;;;;;;;;;;4987036;28;20036;-67
2023/12/06 11:34:56;;;;;;;35.53;29.42;;;;;;;;;;4984717;28;20784;-67
2023/12/06 11:37:22;;;;;;;13.88;7.47;;;;;;;;;;4985046;28;20100;-69
2023/12/06 11:40:07;;;;;;;9.95;4.15;;;;;;;;;;4984163;28;20261;-68
2023/12/06 11:42:37;;;;;;;9.65;4.88;;;;;;;;;;4983723;28;20023;-67
2023/12/06 11:45:05;;;;;;;11.00;5.03;;;;;;;;;;4964719;28;20038;-67
2023/12/06 11:47:35;;;;;;;10.15;4.40;;;;;;;;;;4987965;28;20119;-68
2023/12/06 11:50:03;;;;;;;11.80;6.43;;;;;;;;;;4983451;28;20034;-67
2023/12/06 11:52:29;;;;;;;9.05;4.32;;;;;;;;;;4985070;28;20029;-67
2023/12/06 11:54:55;;;;;;;8.40;3.38;;;;;;;;;;4984929;28;20483;-67
2023/12/06 11:57:22;;;;;;;9.07;3.47;;;;;;;;;;4985758;28;20103;-67
2023/12/06 11:59:49;;;;;;;12.80;6.93;;;;;;;;;;4987234;28;20033;-68
2023/12/06 12:02:16;;;;;;;8.68;2.67;;;;;;;;;;4983215;28;20543;-67
2023/12/06 12:04:42;;;;;;;7.85;3.00;;;;;;;;;;4985009;28;20049;-67
2023/12/06 12:07:09;;;;;;;10.40;3.53;;;;;;;;;;4983787;28;20038;-67
2023/12/06 12:09:35;;;;;;;9.10;3.38;;;;;;;;;;4986984;28;20030;-68
2023/12/06 12:12:01;;;;;;;6.78;2.30;;;;;;;;;;4981290;28;20018;-68
2023/12/06 12:14:37;;;;;;;7.05;2.55;;;;;;;;;;4982832;28;20145;-70
2023/12/06 12:17:03;;;;;;;8.85;2.45;;;;;;;;;;4983301;28;20493;-69
2023/12/06 12:19:31;;;;;;;63.33;57.22;;;;;;;;;;4987547;28;20034;-68
2023/12/06 12:22:01;;;;;;;15.43;11.13;;;;;;;;;;4980619;28;20030;-68
2023/12/06 12:24:27;;;;;;;27.95;25.02;;;;;;;;;;4985225;28;20096;-68
2023/12/06 12:26:54;;;;;;;15.82;12.55;;;;;;;;;;4981106;28;20611;-67
2023/12/06 12:29:20;;;;;;;11.55;4.80;;;;;;;;;;4985924;28;20038;-67
2023/12/06 12:31:46;;;;;;;33.25;29.80;;;;;;;;;;4985187;28;20084;-68
2023/12/06 12:34:12;;;;;;;11.98;7.40;;;;;;;;;;4984615;28;20045;-67
2023/12/06 12:36:40;;;;;;;27.38;23.58;;;;;;;;;;4986784;28;20029;-68
2023/12/06 12:39:08;;;;;;;16.73;11.35;;;;;;;;;;4984003;28;20072;-69
2023/12/06 12:41:35;;;;;;;16.75;10.00;;;;;;;;;;4985140;28;20087;-69
2023/12/06 12:44:01;;;;;;;12.38;7.82;;;;;;;;;;4984883;28;20113;-69
2023/12/06 12:46:27;;;;;;;9.68;5.45;;;;;;;;;;4986088;28;20764;-69
2023/12/06 12:48:54;;;;;;;10.05;4.30;;;;;;;;;;4983561;28;20036;-69
2023/12/06 12:51:20;;;;;;;11.57;6.22;;;;;;;;;;4986823;28;20801;-69
2023/12/06 12:53:46;;;;;;;10.73;6.43;;;;;;;;;;4985310;28;20055;-69
2023/12/06 12:56:13;;;;;;;10.25;5.53;;;;;;;;;;4983635;28;20386;-68
2023/12/06 12:58:39;;;;;;;13.00;6.45;;;;;;;;;;4987098;28;20026;-69
2023/12/06 13:01:07;;;;;;;10.38;5.18;;;;;;;;;;4984946;28;20803;-69
2023/12/06 13:03:33;;;;;;;10.18;4.38;;;;;;;;;;4988249;28;20076;-69
2023/12/06 13:05:59;;;;;;;9.52;4.07;;;;;;;;;;4980754;28;20418;-69
2023/12/06 13:08:30;;;;;;;9.93;4.10;;;;;;;;;;4988511;28;20053;-70
2023/12/06 13:10:56;;;;;;;12.40;5.05;;;;;;;;;;4983438;28;20583;-70
2023/12/06 13:13:22;;;;;;;7.00;2.70;;;;;;;;;;4986216;28;20021;-70
2023/12/06 13:15:49;;;;;;;8.60;3.75;;;;;;;;;;4985093;28;20105;-70
2023/12/06 13:18:15;;;;;;;8.05;3.03;;;;;;;;;;4984609;28;20040;-70
2023/12/06 13:20:41;;;;;;;7.68;3.00;;;;;;;;;;4984554;28;20033;-70
2023/12/06 13:23:07;;;;;;;9.90;3.08;;;;;;;;;;4983964;28;20045;-70
2023/12/06 13:25:33;;;;;;;7.70;3.25;;;;;;;;;;4985779;28;20503;-71
2023/12/06 13:27:59;;;;;;;11.68;7.60;;;;;;;;;;4981896;28;20033;-69
2023/12/06 13:30:26;;;;;;;8.50;4.20;;;;;;;;;;4985233;28;20038;-70
2023/12/06 13:32:52;;;;;;;7.13;2.90;;;;;;;;;;4982368;28;20148;-69
2023/12/06 13:35:18;;;;;;;7.88;2.65;;;;;;;;;;4982340;28;20030;-68
2023/12/06 13:37:45;;;;;;;7.32;2.83;;;;;;;;;;4983819;28;20034;-68
2023/12/06 13:40:12;;;;;;;8.15;2.30;;;;;;;;;;4984741;28;21738;-69
2023/12/06 13:42:39;;;;;;;7.65;2.60;;;;;;;;;;4986171;28;20376;-69
2023/12/06 13:45:06;;;;;;;7.22;2.50;;;;;;;;;;4983032;28;20034;-68
2023/12/06 13:47:32;;;;;;;6.28;2.42;;;;;;;;;;4986885;28;20034;-68
2023/12/06 13:49:58;;;;;;;8.07;2.92;;;;;;;;;;4982200;28;20038;-68
2023/12/06 13:52:24;;;;;;;8.25;3.10;;;;;;;;;;4986193;28;20026;-68
2023/12/06 13:54:52;;;;;;;9.90;4.35;;;;;;;;;;4987407;28;20132;-69
2023/12/06 13:57:18;;;;;;;7.28;2.70;;;;;;;;;;4985510;28;20033;-68
2023/12/06 13:59:44;;;;;;;6.25;2.38;;;;;;;;;;4987576;28;20061;-68
2023/12/06 14:02:13;;;;;;;6.45;2.08;;;;;;;;;;4981607;28;20112;-67
2023/12/06 14:04:39;;;;;;;7.93;2.80;;;;;;;;;;4980846;28;20030;-65
2023/12/06 14:07:07;;;;;;;6.70;2.25;;;;;;;;;;4983773;28;20034;-67
2023/12/06 14:09:34;;;;;;;7.90;2.10;;;;;;;;;;4985410;28;20101;-67
2023/12/06 14:12:03;;;;;;;6.25;1.83;;;;;;;;;;4986456;28;20480;-66
2023/12/06 14:14:29;;;;;;;6.32;1.95;;;;;;;;;;4985567;28;20037;-68
2023/12/06 14:16:55;;;;;;;6.50;2.10;;;;;;;;;;4979091;28;20060;-66
2023/12/06 14:19:23;;;;;;;6.88;1.95;;;;;;;;;;4985289;28;20033;-66
2023/12/06 14:21:49;;;;;;;6.72;2.00;;;;;;;;;;4985267;28;20018;-66
2023/12/06 14:24:16;;;;;;;8.70;2.55;;;;;;;;;;4985753;28;20081;-67
2023/12/06 14:26:43;;;;;;;7.35;2.15;;;;;;;;;;4984340;28;20022;-67
2023/12/06 14:29:09;;;;;;;8.32;2.03;;;;;;;;;;4980593;28;20470;-66
2023/12/06 14:31:36;;;;;;;7.35;2.60;;;;;;;;;;4982369;28;20022;-66
2023/12/06 14:34:05;;;;;;;8.50;2.80;;;;;;;;;;4983813;28;20751;-67
2023/12/06 14:36:32;;;;;;;8.07;2.10;;;;;;;;;;4984141;28;20040;-67
2023/12/06 14:38:58;;;;;;;6.57;1.90;;;;;;;;;;4981913;28;20126;-67